createdAt,value
2018-06-30T00:01:59.879Z,20.00
2018-06-30T00:04:29.129Z,19.87
2018-06-30T00:06:58.462Z,18.43
2018-06-30T00:09:27.728Z,18.40
2018-06-30T00:11:56.990Z,19.23
2018-06-30T00:14:26.247Z,18.10
2018-06-30T00:16:55.510Z,18.10
2018-06-30T00:19:24.777Z,20.70
2018-06-30T00:21:54.381Z,19.23
2018-06-30T00:24:23.617Z,23.00
2018-06-30T00:26:56.954Z,23.60
2018-06-30T00:29:26.207Z,50.13
2018-06-30T00:31:55.507Z,37.57
2018-06-30T00:34:24.757Z,88.53
2018-06-30T00:36:54.050Z,60.43
2018-06-30T00:39:23.297Z,47.87
2018-06-30T00:41:52.526Z,50.83
2018-06-30T00:44:21.796Z,58.30
2018-06-30T00:46:51.042Z,99.77
2018-06-30T00:49:20.903Z,57.10
2018-06-30T00:51:50.177Z,29.67
2018-06-30T00:54:19.415Z,26.83
2018-06-30T00:56:48.676Z,24.87
2018-06-30T00:59:17.951Z,23.53
2018-06-30T01:01:47.188Z,23.07
2018-06-30T01:04:16.480Z,32.37
2018-06-30T01:06:45.763Z,39.10
2018-06-30T01:09:15.015Z,36.00
2018-06-30T01:28:11.118Z,47.93
2018-06-30T01:30:55.198Z,187.62
2018-06-30T01:33:24.490Z,35.10
2018-06-30T01:35:53.729Z,38.40
2018-06-30T01:38:22.982Z,41.53
2018-06-30T01:40:52.215Z,39.23
2018-06-30T01:43:21.481Z,42.83
2018-06-30T01:45:50.749Z,42.13
2018-06-30T01:48:20.021Z,28.30
2018-06-30T01:50:49.247Z,29.17
2018-06-30T01:53:18.535Z,26.20
2018-06-30T01:55:47.792Z,31.87
2018-06-30T01:58:17.045Z,23.03
2018-06-30T02:00:46.293Z,23.50
2018-06-30T02:03:15.729Z,21.03
2018-06-30T02:05:44.975Z,26.10
2018-06-30T02:08:14.224Z,21.47
2018-06-30T02:10:43.499Z,17.33
2018-06-30T02:13:12.899Z,16.13
2018-06-30T02:15:42.138Z,17.73
2018-06-30T02:18:11.400Z,17.20
2018-06-30T02:20:40.658Z,17.23
2018-06-30T02:23:09.924Z,16.07
2018-06-30T02:25:39.243Z,16.77
2018-06-30T02:28:08.506Z,17.13
2018-06-30T02:30:37.787Z,17.17
2018-06-30T02:33:07.091Z,17.03
2018-06-30T02:35:36.362Z,17.03
2018-06-30T02:38:05.628Z,18.60
2018-06-30T02:40:34.887Z,16.27
2018-06-30T02:43:04.152Z,17.77
2018-06-30T02:45:33.414Z,16.60
2018-06-30T02:48:02.747Z,15.53
2018-06-30T02:50:32.003Z,15.68
2018-06-30T02:53:01.267Z,16.07
2018-06-30T02:55:30.550Z,16.60
2018-06-30T02:57:59.799Z,17.03
2018-06-30T03:00:29.036Z,19.57
2018-06-30T03:03:29.125Z,17.98
2018-06-30T03:05:58.370Z,16.77
2018-06-30T03:08:27.657Z,19.10
2018-06-30T03:10:56.918Z,20.23
2018-06-30T03:13:26.188Z,16.73
2018-06-30T03:15:55.452Z,18.25
2018-06-30T03:18:24.695Z,20.70
2018-06-30T03:20:53.947Z,22.03
2018-06-30T03:23:23.217Z,20.80
2018-06-30T03:25:52.523Z,16.77
2018-06-30T03:28:21.779Z,22.17
2018-06-30T03:30:51.031Z,26.70
2018-06-30T03:33:20.303Z,27.90
2018-06-30T03:35:49.556Z,31.37
2018-06-30T03:38:18.819Z,27.20
2018-06-30T03:40:48.074Z,25.33
2018-06-30T03:43:17.327Z,39.60
2018-06-30T03:45:46.587Z,48.07
2018-06-30T03:48:15.820Z,32.83
2018-06-30T03:50:45.351Z,37.93
2018-06-30T03:53:14.582Z,31.10
2018-06-30T03:55:43.830Z,27.07
2018-06-30T03:58:13.120Z,18.33
2018-06-30T04:00:42.386Z,16.90
2018-06-30T04:03:11.599Z,17.10
2018-06-30T04:05:40.872Z,15.90
2018-06-30T04:08:10.124Z,14.20
2018-06-30T04:10:39.398Z,14.33
2018-06-30T04:13:08.645Z,14.60
2018-06-30T04:15:37.963Z,15.07
2018-06-30T04:18:07.150Z,15.17
2018-06-30T04:20:36.411Z,16.27
2018-06-30T04:23:05.675Z,15.70
2018-06-30T04:25:34.968Z,14.43
2018-06-30T04:28:05.258Z,14.40
2018-06-30T04:30:34.507Z,22.03
2018-06-30T04:33:03.751Z,14.47
2018-06-30T04:35:33.019Z,14.27
2018-06-30T04:38:02.285Z,14.27
2018-06-30T04:40:31.546Z,14.00
2018-06-30T04:43:00.830Z,13.27
2018-06-30T04:45:30.107Z,13.67
2018-06-30T04:47:59.431Z,13.60
2018-06-30T04:50:28.728Z,14.20
2018-06-30T04:52:57.999Z,13.40
2018-06-30T04:55:27.245Z,11.53
2018-06-30T04:57:56.518Z,11.47
2018-06-30T05:00:25.760Z,7.47
2018-06-30T05:02:54.982Z,6.63
2018-06-30T05:05:24.286Z,5.60
2018-06-30T05:07:53.567Z,4.70
2018-06-30T05:10:22.892Z,6.12
2018-06-30T05:12:52.183Z,5.63
2018-06-30T05:15:21.437Z,4.50
2018-06-30T05:17:50.701Z,6.35
2018-06-30T05:20:19.952Z,4.42
2018-06-30T05:22:49.203Z,4.03
2018-06-30T05:25:18.466Z,4.13
2018-06-30T05:27:47.727Z,3.62
2018-06-30T05:30:17.298Z,4.50
2018-06-30T05:32:46.512Z,4.25
2018-06-30T05:35:15.753Z,4.83
2018-06-30T05:37:45.019Z,6.23
2018-06-30T05:40:14.271Z,4.47
2018-06-30T05:42:43.539Z,4.20
2018-06-30T05:45:12.795Z,5.40
2018-06-30T05:47:42.029Z,5.53
2018-06-30T05:50:11.459Z,5.57
2018-06-30T05:52:40.679Z,5.65
2018-06-30T05:55:10.030Z,5.80
2018-06-30T05:57:39.299Z,5.83
2018-06-30T06:00:08.572Z,5.90
2018-06-30T06:02:37.826Z,6.00
2018-06-30T06:05:07.711Z,5.90
2018-06-30T06:07:36.984Z,5.70
2018-06-30T06:10:06.334Z,6.33
2018-06-30T06:12:35.567Z,6.60
2018-06-30T06:15:04.844Z,7.50
2018-06-30T06:17:34.160Z,6.97
2018-06-30T06:20:03.472Z,6.58
2018-06-30T06:22:32.765Z,6.15
2018-06-30T06:25:02.014Z,6.30
2018-06-30T06:27:31.348Z,6.10
2018-06-30T06:30:00.571Z,8.63
2018-06-30T06:32:29.930Z,5.80
2018-06-30T06:34:59.158Z,6.77
2018-06-30T06:37:28.407Z,6.50
2018-06-30T06:39:57.469Z,6.63
2018-06-30T06:42:27.781Z,6.83
2018-06-30T06:44:57.590Z,8.13
2018-06-30T06:47:26.833Z,6.30
2018-06-30T06:49:56.055Z,6.50
2018-06-30T06:52:25.307Z,6.52
2018-06-30T06:54:54.766Z,6.92
2018-06-30T06:57:24.029Z,6.33
2018-06-30T06:59:53.312Z,6.17
2018-06-30T07:02:22.567Z,6.30
2018-06-30T07:04:51.811Z,8.40
2018-06-30T07:07:21.059Z,9.18
2018-06-30T07:09:50.315Z,7.35
2018-06-30T07:12:19.559Z,6.27
2018-06-30T07:14:48.808Z,6.03
2018-06-30T07:17:18.347Z,5.70
2018-06-30T07:19:47.598Z,5.62
2018-06-30T07:22:16.850Z,5.92
2018-06-30T07:24:46.149Z,6.03
2018-06-30T07:27:15.411Z,8.23
2018-06-30T07:29:44.639Z,5.72
2018-06-30T07:32:14.028Z,7.70
2018-06-30T07:34:43.443Z,6.83
2018-06-30T07:37:12.767Z,6.10
2018-06-30T07:39:41.773Z,5.70
2018-06-30T07:42:11.054Z,5.67
2018-06-30T07:44:40.321Z,7.25
2018-06-30T07:47:09.590Z,5.87
2018-06-30T07:49:38.883Z,7.70
2018-06-30T07:52:08.158Z,6.67
2018-06-30T07:54:37.399Z,6.97
2018-06-30T07:57:06.906Z,5.70
2018-06-30T07:59:36.154Z,7.13
2018-06-30T08:02:05.688Z,12.27
2018-06-30T08:04:34.923Z,7.28
2018-06-30T08:07:04.226Z,6.72
2018-06-30T08:09:33.478Z,7.33
2018-06-30T08:12:02.731Z,7.42
2018-06-30T08:14:31.978Z,10.70
2018-06-30T08:17:01.367Z,7.08
2018-06-30T08:19:30.659Z,9.45
2018-06-30T08:21:59.932Z,7.67
2018-06-30T08:24:29.192Z,8.37
2018-06-30T08:26:58.215Z,9.50
2018-06-30T08:29:27.487Z,7.95
2018-06-30T08:31:56.717Z,7.90
2018-06-30T08:34:25.986Z,7.90
2018-06-30T08:36:55.389Z,7.93
2018-06-30T08:39:24.635Z,7.60
2018-06-30T08:41:53.887Z,8.53
2018-06-30T08:44:23.207Z,7.92
2018-06-30T08:46:52.478Z,8.87
2018-06-30T08:49:21.786Z,7.23
2018-06-30T08:51:51.055Z,7.22
2018-06-30T08:54:20.290Z,7.08
2018-06-30T08:56:49.549Z,6.92
2018-06-30T08:59:18.813Z,7.10
2018-06-30T09:01:48.074Z,7.07
2018-06-30T09:04:17.331Z,7.53
2018-06-30T09:06:46.572Z,7.85
2018-06-30T09:09:15.834Z,7.03
2018-06-30T09:11:45.113Z,6.60
2018-06-30T09:14:14.391Z,7.17
2018-06-30T09:16:43.610Z,7.87
2018-06-30T09:19:12.843Z,7.22
2018-06-30T09:21:42.065Z,7.10
2018-06-30T09:24:11.392Z,7.07
2018-06-30T09:26:40.578Z,8.25
2018-06-30T09:29:09.855Z,8.48
2018-06-30T09:31:39.142Z,7.87
2018-06-30T09:34:08.740Z,8.80
2018-06-30T09:36:38.028Z,7.57
2018-06-30T09:39:09.790Z,7.47
2018-06-30T09:41:40.555Z,9.88
2018-06-30T09:44:10.097Z,8.08
2018-06-30T09:46:39.378Z,9.80
2018-06-30T09:49:08.639Z,8.00
2018-06-30T09:51:37.923Z,13.98
2018-06-30T09:54:07.202Z,8.00
2018-06-30T09:56:36.523Z,8.18
2018-06-30T09:59:05.783Z,7.33
2018-06-30T10:01:35.026Z,7.30
2018-06-30T10:04:04.303Z,7.40
2018-06-30T10:06:33.598Z,7.22
2018-06-30T10:09:02.906Z,6.35
2018-06-30T10:11:32.098Z,7.30
2018-06-30T10:14:01.374Z,8.57
2018-06-30T10:16:30.618Z,7.75
2018-06-30T10:18:59.893Z,8.28
2018-06-30T10:21:29.130Z,6.20
2018-06-30T10:23:58.398Z,6.17
2018-06-30T10:26:27.698Z,5.90
2018-06-30T10:28:56.998Z,5.80
2018-06-30T10:31:26.249Z,6.67
2018-06-30T10:33:55.526Z,7.30
2018-06-30T10:36:24.776Z,5.93
2018-06-30T10:38:54.031Z,7.07
2018-06-30T10:41:23.556Z,6.65
2018-06-30T10:43:52.819Z,6.50
2018-06-30T10:46:22.080Z,6.00
2018-06-30T10:48:51.383Z,6.80
2018-06-30T10:51:20.651Z,5.35
2018-06-30T10:53:49.925Z,5.65
2018-06-30T10:56:19.149Z,5.97
2018-06-30T10:58:48.429Z,6.50
2018-06-30T11:01:17.673Z,6.57
2018-06-30T11:03:46.947Z,6.03
2018-06-30T11:06:16.211Z,5.47
2018-06-30T11:08:45.463Z,5.78
2018-06-30T11:11:14.759Z,6.70
2018-06-30T11:13:44.027Z,6.43
2018-06-30T11:16:13.256Z,5.72
2018-06-30T11:18:42.519Z,5.75
2018-06-30T11:21:11.772Z,6.40
2018-06-30T11:23:41.013Z,10.03
2018-06-30T11:26:10.306Z,9.27
2018-06-30T11:28:39.545Z,8.25
2018-06-30T11:31:08.834Z,7.37
2018-06-30T11:33:38.082Z,6.40
2018-06-30T11:36:07.350Z,8.20
2018-06-30T11:38:36.618Z,26.70
2018-06-30T11:41:05.898Z,59.42
2018-06-30T11:43:35.166Z,51.68
2018-06-30T11:46:04.453Z,22.93
2018-06-30T11:48:33.724Z,77.73
2018-06-30T11:51:02.966Z,62.67
2018-06-30T11:53:33.473Z,23.15
2018-06-30T11:56:02.720Z,24.72
2018-06-30T11:58:32.090Z,39.50
2018-06-30T12:01:01.317Z,50.20
2018-06-30T12:03:30.597Z,10.95
2018-06-30T12:05:59.836Z,6.95
2018-06-30T12:08:29.101Z,8.60
2018-06-30T12:10:58.343Z,5.90
2018-06-30T12:13:27.595Z,6.37
2018-06-30T12:15:56.850Z,4.35
2018-06-30T12:18:29.055Z,7.67
2018-06-30T12:20:58.338Z,7.47
2018-06-30T12:23:27.608Z,25.03
2018-06-30T12:25:56.880Z,12.13
2018-06-30T12:28:26.103Z,9.53
2018-06-30T12:30:56.150Z,11.14
2018-06-30T12:33:25.583Z,5.37
2018-06-30T12:35:54.870Z,4.93
2018-06-30T12:38:24.183Z,6.60
2018-06-30T12:40:53.423Z,4.93
2018-06-30T12:43:22.667Z,4.90
2018-06-30T12:45:51.965Z,5.03
2018-06-30T12:48:21.247Z,4.50
2018-06-30T12:50:50.535Z,6.23
2018-06-30T12:53:19.789Z,7.53
2018-06-30T12:55:49.063Z,7.00
2018-06-30T12:58:18.331Z,6.50
2018-06-30T13:00:47.619Z,6.47
2018-06-30T13:03:16.936Z,6.33
2018-06-30T13:05:46.239Z,6.33
2018-06-30T13:08:15.478Z,6.20
2018-06-30T13:10:44.747Z,6.83
2018-06-30T13:13:14.025Z,8.10
2018-06-30T13:15:43.296Z,9.60
2018-06-30T13:18:12.564Z,6.03
2018-06-30T13:20:41.864Z,7.58
2018-06-30T13:23:11.160Z,6.28
2018-06-30T13:25:40.385Z,6.77
2018-06-30T13:28:09.650Z,7.70
2018-06-30T13:30:38.902Z,7.67
2018-06-30T13:33:08.124Z,6.17
2018-06-30T13:35:37.579Z,4.90
2018-06-30T13:38:06.664Z,6.27
2018-06-30T13:40:35.924Z,7.30
2018-06-30T13:43:05.521Z,6.53
2018-06-30T13:45:34.747Z,6.75
2018-06-30T13:48:04.016Z,5.58
2018-06-30T13:50:33.277Z,6.53
2018-06-30T13:53:02.547Z,4.93
2018-06-30T13:55:31.815Z,4.37
2018-06-30T13:58:01.119Z,4.67
2018-06-30T14:00:30.373Z,4.97
2018-06-30T14:02:59.627Z,6.77
2018-06-30T14:05:28.891Z,4.30
2018-06-30T14:07:59.226Z,5.84
2018-06-30T14:10:28.472Z,5.10
2018-06-30T14:12:57.712Z,5.95
2018-06-30T14:15:26.970Z,6.60
2018-06-30T14:17:56.218Z,6.30
2018-06-30T14:20:25.493Z,5.20
2018-06-30T14:22:54.738Z,5.90
2018-06-30T14:25:23.986Z,8.03
2018-06-30T14:27:53.282Z,5.67
2018-06-30T14:30:22.567Z,5.87
2018-06-30T14:32:51.819Z,9.30
2018-06-30T14:35:21.068Z,6.85
2018-06-30T14:37:50.444Z,6.57
2018-06-30T14:40:19.594Z,5.28
2018-06-30T14:42:48.838Z,6.45
2018-06-30T14:45:18.156Z,5.72
2018-06-30T14:47:47.423Z,6.30
2018-06-30T14:50:16.677Z,5.70
2018-06-30T14:52:45.975Z,5.57
2018-06-30T14:55:15.260Z,5.20
2018-06-30T14:57:44.483Z,6.03
2018-06-30T15:00:13.811Z,8.65
2018-06-30T15:02:43.102Z,7.08
2018-06-30T15:05:12.571Z,6.13
2018-06-30T15:07:41.884Z,6.67
2018-06-30T15:10:11.208Z,5.55
2018-06-30T15:12:40.465Z,5.70
2018-06-30T15:15:09.723Z,6.97
2018-06-30T15:17:38.971Z,8.25
2018-06-30T15:20:08.423Z,7.25
2018-06-30T15:22:37.730Z,13.18
2018-06-30T15:25:07.057Z,7.30
2018-06-30T15:27:36.311Z,7.58
2018-06-30T15:30:05.596Z,7.20
2018-06-30T15:32:36.099Z,8.28
2018-06-30T15:35:05.485Z,7.62
2018-06-30T15:37:34.763Z,7.43
2018-06-30T15:40:04.598Z,7.07
2018-06-30T15:42:33.879Z,7.13
2018-06-30T15:45:03.136Z,9.75
2018-06-30T15:47:32.386Z,8.93
2018-06-30T15:50:01.615Z,7.40
2018-06-30T15:52:31.743Z,7.47
2018-06-30T15:55:00.974Z,7.70
2018-06-30T16:20:26.434Z,7.83
2018-06-30T16:22:55.820Z,7.87
2018-06-30T16:25:25.092Z,7.37
2018-06-30T16:27:54.351Z,8.00
2018-06-30T16:30:23.603Z,7.47
2018-06-30T16:32:52.914Z,8.23
2018-06-30T16:35:22.186Z,9.55
2018-06-30T16:37:51.507Z,10.58
2018-06-30T16:40:20.772Z,7.63
2018-06-30T16:42:50.048Z,10.82
2018-06-30T16:45:19.330Z,7.70
2018-06-30T16:47:48.611Z,10.50
2018-06-30T16:50:17.911Z,8.10
2018-06-30T16:52:47.229Z,8.25
2018-06-30T16:55:16.469Z,8.63
2018-06-30T16:57:45.731Z,10.08
2018-06-30T17:00:14.974Z,9.10
2018-06-30T17:02:44.211Z,8.63
2018-06-30T17:05:13.535Z,8.57
2018-06-30T17:07:42.833Z,7.83
2018-06-30T17:10:12.091Z,8.80
2018-06-30T17:12:41.386Z,11.23
2018-06-30T17:15:11.262Z,10.20
2018-06-30T17:17:40.591Z,10.48
2018-06-30T17:20:09.853Z,8.18
2018-06-30T17:22:39.122Z,9.83
2018-06-30T17:25:08.559Z,8.53
2018-06-30T17:27:37.790Z,8.33
2018-06-30T17:30:07.095Z,8.80
2018-06-30T17:32:36.356Z,9.53
2018-06-30T17:35:05.895Z,8.75
2018-06-30T17:37:35.155Z,7.50
2018-06-30T17:40:04.727Z,9.90
2018-06-30T17:42:34.004Z,8.95
2018-06-30T17:45:03.356Z,8.10
2018-06-30T17:47:32.611Z,9.43
2018-06-30T17:50:01.894Z,8.17
2018-06-30T17:52:31.159Z,8.53
2018-06-30T17:55:00.425Z,10.10
2018-06-30T17:57:29.807Z,8.75
2018-06-30T17:59:59.059Z,9.10
2018-06-30T18:02:28.338Z,8.68
2018-06-30T18:04:57.582Z,10.40
2018-06-30T18:07:26.824Z,8.50
2018-06-30T18:09:56.132Z,7.80
2018-06-30T18:12:25.372Z,9.07
2018-06-30T18:14:54.587Z,8.80
2018-06-30T18:17:23.698Z,9.93
2018-06-30T18:19:52.760Z,7.87
2018-06-30T18:22:22.027Z,8.68
2018-06-30T18:24:51.306Z,9.00
2018-06-30T18:27:20.329Z,10.27
2018-06-30T18:29:49.692Z,8.88
2018-06-30T18:32:18.973Z,10.60
2018-06-30T18:34:48.254Z,8.23
2018-06-30T18:37:17.579Z,9.57
2018-06-30T18:39:46.833Z,9.97
2018-06-30T18:42:16.258Z,9.85
2018-06-30T18:44:46.146Z,8.03
2018-06-30T18:47:15.411Z,8.33
2018-06-30T18:49:44.688Z,8.10
2018-06-30T18:52:13.991Z,10.33
2018-06-30T18:54:43.251Z,7.95
2018-06-30T18:57:12.258Z,7.70
2018-06-30T18:59:41.513Z,7.67
2018-06-30T19:02:10.838Z,7.30
2018-06-30T19:04:40.169Z,7.17
2018-06-30T19:07:09.506Z,6.97
2018-06-30T19:09:38.774Z,6.78
2018-06-30T19:12:08.070Z,6.20
2018-06-30T19:14:37.319Z,8.73
2018-06-30T19:17:06.688Z,5.80
2018-06-30T19:19:36.087Z,6.03
2018-06-30T19:22:05.390Z,6.20
2018-06-30T19:24:34.642Z,9.53
2018-06-30T19:27:03.916Z,7.27
2018-06-30T19:29:33.190Z,5.62
2018-06-30T19:32:02.415Z,5.17
2018-06-30T19:34:38.373Z,5.12
2018-06-30T19:37:07.687Z,7.65
2018-06-30T19:39:36.934Z,7.77
2018-06-30T19:42:06.181Z,7.17
2018-06-30T19:44:35.418Z,5.03
2018-06-30T19:47:04.707Z,5.78
2018-06-30T19:49:33.992Z,6.10
2018-06-30T19:52:03.230Z,9.80
2018-06-30T19:54:32.523Z,6.00
2018-06-30T19:57:01.765Z,6.55
2018-06-30T19:59:31.014Z,6.53
2018-06-30T20:02:00.282Z,4.72
2018-06-30T20:04:29.537Z,5.37
2018-06-30T20:06:58.775Z,5.40
2018-06-30T20:09:28.030Z,4.45
2018-06-30T20:11:57.357Z,4.92
2018-06-30T20:14:26.624Z,6.28
2018-06-30T20:16:55.879Z,6.17
2018-06-30T20:19:25.110Z,5.50
2018-06-30T20:21:54.365Z,4.42
2018-06-30T20:24:23.668Z,6.58
2018-06-30T20:26:52.922Z,4.15
2018-06-30T20:29:22.339Z,6.13
2018-06-30T20:31:51.576Z,3.77
2018-06-30T20:34:20.866Z,3.35
2018-06-30T20:36:50.109Z,4.97
2018-06-30T20:39:19.408Z,4.10
2018-06-30T20:41:48.640Z,6.43
2018-06-30T20:44:17.880Z,6.33
2018-06-30T20:46:48.335Z,7.17
2018-06-30T20:49:17.607Z,5.17
2018-06-30T20:51:46.880Z,5.17
2018-06-30T20:54:16.132Z,4.80
2018-06-30T20:56:45.362Z,5.22
2018-06-30T20:59:14.585Z,6.50
2018-06-30T21:01:43.851Z,6.90
2018-06-30T21:04:13.104Z,11.23
2018-06-30T21:06:42.344Z,5.70
2018-06-30T21:09:12.346Z,9.17
2018-06-30T21:11:41.597Z,7.53
2018-06-30T21:14:10.844Z,10.03
2018-06-30T21:16:40.080Z,10.53
2018-06-30T21:19:09.345Z,8.73
2018-06-30T21:21:38.586Z,7.60
2018-06-30T21:24:07.870Z,6.37
2018-06-30T21:26:37.164Z,8.30
2018-06-30T21:29:06.376Z,7.10
2018-06-30T21:31:35.623Z,6.63
2018-06-30T21:34:04.905Z,5.10
2018-06-30T21:36:34.166Z,5.30
2018-06-30T21:39:03.427Z,7.37
2018-06-30T21:41:32.666Z,5.87
2018-06-30T21:44:01.927Z,5.90
2018-06-30T21:46:31.187Z,6.90
2018-06-30T21:49:00.466Z,5.10
2018-06-30T21:51:29.840Z,5.75
2018-06-30T21:53:59.086Z,8.40
2018-06-30T21:56:28.371Z,8.38
2018-06-30T21:58:57.773Z,8.10
2018-06-30T22:01:27.367Z,7.93
2018-06-30T22:03:57.553Z,6.75
2018-06-30T22:06:26.811Z,6.80
2018-06-30T22:08:56.068Z,7.17
2018-06-30T22:11:26.262Z,6.08
2018-06-30T22:13:55.499Z,7.13
2018-06-30T22:16:24.723Z,6.12
2018-06-30T22:18:54.223Z,7.80
2018-06-30T22:21:23.474Z,7.15
2018-06-30T22:23:52.710Z,6.07
2018-06-30T22:26:21.976Z,5.97
2018-06-30T22:28:51.223Z,6.00
2018-06-30T22:31:20.463Z,6.50
2018-06-30T22:33:49.724Z,4.83
2018-06-30T22:36:18.957Z,6.87
2018-06-30T22:38:48.210Z,5.57
2018-06-30T22:41:17.449Z,7.00
2018-06-30T22:43:46.672Z,4.47
2018-06-30T22:46:15.960Z,6.13
2018-06-30T22:48:45.216Z,8.20
2018-06-30T22:51:14.466Z,4.40
2018-06-30T22:53:43.702Z,5.97
2018-06-30T22:56:12.957Z,5.30
2018-06-30T22:58:42.195Z,4.50
2018-06-30T23:01:11.511Z,4.67
2018-06-30T23:03:40.755Z,5.10
2018-06-30T23:06:09.992Z,5.00
2018-06-30T23:08:44.594Z,3.67
2018-06-30T23:11:13.887Z,3.67
2018-06-30T23:13:43.123Z,3.50
2018-06-30T23:16:12.387Z,4.13
2018-06-30T23:18:41.639Z,3.97
2018-06-30T23:21:10.883Z,4.50
2018-06-30T23:23:40.194Z,3.37
2018-06-30T23:26:09.390Z,4.40
2018-06-30T23:28:38.626Z,3.10
2018-06-30T23:31:07.880Z,3.47
2018-06-30T23:33:37.130Z,7.40
2018-06-30T23:36:06.386Z,3.10
2018-06-30T23:38:35.636Z,4.47
2018-06-30T23:41:04.894Z,5.10
2018-06-30T23:43:34.111Z,3.92
2018-06-30T23:46:03.377Z,4.13
2018-06-30T23:48:32.602Z,4.97
2018-06-30T23:51:01.831Z,4.97
2018-06-30T23:53:31.067Z,3.10
2018-06-30T23:56:00.350Z,4.80
2018-06-30T23:58:29.582Z,2.80
